sensor_id;sensor_type;location;lat;lon;timestamp;P1;durP1;ratioP1;P2;durP2;ratioP2
72422;SDS011;60413;55.658;37.498;2022-09-13T00:02:05;8.45;;;3.67;;
72422;SDS011;60413;55.658;37.498;2022-09-13T00:04:31;8.88;;;3.72;;
72422;SDS011;60413;55.658;37.498;2022-09-13T00:06:59;14.98;;;5.85;;
72422;SDS011;60413;55.658;37.498;2022-09-13T00:09:25;11.40;;;5.88;;
72422;SDS011;60413;55.658;37.498;2022-09-13T00:11:53;15.65;;;6.07;;
72422;SDS011;60413;55.658;37.498;2022-09-13T00:14:19;9.27;;;4.63;;
72422;SDS011;60413;55.658;37.498;2022-09-13T00:16:45;13.60;;;6.03;;
72422;SDS011;60413;55.658;37.498;2022-09-13T00:19:11;11.07;;;6.03;;
72422;SDS011;60413;55.658;37.498;2022-09-13T00:21:37;11.40;;;5.65;;
72422;SDS011;60413;55.658;37.498;2022-09-13T00:24:03;9.88;;;5.95;;
72422;SDS011;60413;55.658;37.498;2022-09-13T00:26:29;12.45;;;5.55;;
72422;SDS011;60413;55.658;37.498;2022-09-13T00:28:56;10.65;;;5.28;;
72422;SDS011;60413;55.658;37.498;2022-09-13T00:31:23;7.95;;;4.93;;
72422;SDS011;60413;55.658;37.498;2022-09-13T00:33:54;11.50;;;5.82;;
72422;SDS011;60413;55.658;37.498;2022-09-13T00:36:21;8.82;;;5.13;;
72422;SDS011;60413;55.658;37.498;2022-09-13T00:38:46;10.82;;;3.72;;
72422;SDS011;60413;55.658;37.498;2022-09-13T00:41:14;11.68;;;4.68;;
72422;SDS011;60413;55.658;37.498;2022-09-13T00:43:49;9.00;;;5.45;;
72422;SDS011;60413;55.658;37.498;2022-09-13T00:46:34;11.52;;;5.70;;
72422;SDS011;60413;55.658;37.498;2022-09-13T00:49:18;8.15;;;4.78;;
72422;SDS011;60413;55.658;37.498;2022-09-13T00:51:57;8.95;;;5.15;;
72422;SDS011;60413;55.658;37.498;2022-09-13T00:54:27;10.52;;;5.55;;
72422;SDS011;60413;55.658;37.498;2022-09-13T00:57:06;11.52;;;5.93;;
72422;SDS011;60413;55.658;37.498;2022-09-13T00:59:39;10.25;;;5.43;;
72422;SDS011;60413;55.658;37.498;2022-09-13T01:02:10;11.77;;;5.70;;
72422;SDS011;60413;55.658;37.498;2022-09-13T01:04:36;10.85;;;5.47;;
72422;SDS011;60413;55.658;37.498;2022-09-13T01:07:07;9.95;;;5.82;;
72422;SDS011;60413;55.658;37.498;2022-09-13T01:09:36;12.95;;;6.20;;
72422;SDS011;60413;55.658;37.498;2022-09-13T01:12:07;10.20;;;4.65;;
72422;SDS011;60413;55.658;37.498;2022-09-13T01:14:58;11.02;;;4.78;;
72422;SDS011;60413;55.658;37.498;2022-09-13T01:17:27;9.52;;;5.57;;
72422;SDS011;60413;55.658;37.498;2022-09-13T01:19:58;11.07;;;5.53;;
72422;SDS011;60413;55.658;37.498;2022-09-13T01:22:36;9.05;;;4.93;;
72422;SDS011;60413;55.658;37.498;2022-09-13T01:31:06;9.80;;;5.38;;
72422;SDS011;60413;55.658;37.498;2022-09-13T01:33:48;10.35;;;5.95;;
72422;SDS011;60413;55.658;37.498;2022-09-13T01:39:30;9.70;;;5.90;;
72422;SDS011;60413;55.658;37.498;2022-09-13T01:48:22;8.77;;;5.32;;
72422;SDS011;60413;55.658;37.498;2022-09-13T01:51:01;9.35;;;4.65;;
72422;SDS011;60413;55.658;37.498;2022-09-13T01:58:45;11.73;;;6.18;;
72422;SDS011;60413;55.658;37.498;2022-09-13T02:01:32;11.00;;;5.85;;
72422;SDS011;60413;55.658;37.498;2022-09-13T02:04:19;10.40;;;6.07;;
72422;SDS011;60413;55.658;37.498;2022-09-13T02:06:50;14.43;;;6.03;;
72422;SDS011;60413;55.658;37.498;2022-09-13T02:09:26;10.23;;;4.88;;
72422;SDS011;60413;55.658;37.498;2022-09-13T02:12:04;12.20;;;5.47;;
72422;SDS011;60413;55.658;37.498;2022-09-13T02:14:39;9.07;;;5.35;;
72422;SDS011;60413;55.658;37.498;2022-09-13T02:17:19;9.00;;;5.03;;
72422;SDS011;60413;55.658;37.498;2022-09-13T02:19:56;9.63;;;5.15;;
72422;SDS011;60413;55.658;37.498;2022-09-13T02:22:30;10.73;;;5.15;;
72422;SDS011;60413;55.658;37.498;2022-09-13T02:25:00;10.77;;;5.60;;
72422;SDS011;60413;55.658;37.498;2022-09-13T02:27:32;11.30;;;5.95;;
72422;SDS011;60413;55.658;37.498;2022-09-13T02:30:02;10.52;;;5.65;;
72422;SDS011;60413;55.658;37.498;2022-09-13T02:32:38;13.73;;;5.65;;
72422;SDS011;60413;55.658;37.498;2022-09-13T02:35:09;9.48;;;5.90;;
72422;SDS011;60413;55.658;37.498;2022-09-13T02:37:39;12.00;;;5.80;;
72422;SDS011;60413;55.658;37.498;2022-09-13T02:40:08;9.20;;;5.82;;
72422;SDS011;60413;55.658;37.498;2022-09-13T02:43:12;12.10;;;6.38;;
72422;SDS011;60413;55.658;37.498;2022-09-13T02:48:36;10.00;;;5.35;;
72422;SDS011;60413;55.658;37.498;2022-09-13T02:56:34;13.57;;;8.23;;
72422;SDS011;60413;55.658;37.498;2022-09-13T02:59:22;14.68;;;8.18;;
72422;SDS011;60413;55.658;37.498;2022-09-13T03:01:52;14.50;;;7.28;;
72422;SDS011;60413;55.658;37.498;2022-09-13T03:04:19;16.88;;;9.18;;
72422;SDS011;60413;55.658;37.498;2022-09-13T03:06:45;18.83;;;8.88;;
72422;SDS011;60413;55.658;37.498;2022-09-13T03:09:14;16.58;;;8.15;;
72422;SDS011;60413;55.658;37.498;2022-09-13T03:12:02;16.05;;;8.82;;
72422;SDS011;60413;55.658;37.498;2022-09-13T03:20:13;19.23;;;8.27;;
72422;SDS011;60413;55.658;37.498;2022-09-13T03:22:57;16.50;;;8.00;;
72422;SDS011;60413;55.658;37.498;2022-09-13T03:25:39;18.38;;;8.88;;
72422;SDS011;60413;55.658;37.498;2022-09-13T03:28:20;15.75;;;7.75;;
72422;SDS011;60413;55.658;37.498;2022-09-13T03:31:04;15.10;;;7.40;;
72422;SDS011;60413;55.658;37.498;2022-09-13T03:33:39;17.40;;;7.47;;
72422;SDS011;60413;55.658;37.498;2022-09-13T03:36:20;16.52;;;7.63;;
72422;SDS011;60413;55.658;37.498;2022-09-13T03:41:25;13.57;;;5.10;;
72422;SDS011;60413;55.658;37.498;2022-09-13T03:44:00;17.10;;;7.65;;
72422;SDS011;60413;55.658;37.498;2022-09-13T03:46:43;16.45;;;7.55;;
72422;SDS011;60413;55.658;37.498;2022-09-13T03:49:14;11.70;;;6.90;;
72422;SDS011;60413;55.658;37.498;2022-09-13T03:51:48;11.30;;;5.40;;
72422;SDS011;60413;55.658;37.498;2022-09-13T03:54:17;12.00;;;5.93;;
72422;SDS011;60413;55.658;37.498;2022-09-13T03:59:37;12.43;;;6.03;;
72422;SDS011;60413;55.658;37.498;2022-09-13T04:02:06;14.63;;;6.85;;
72422;SDS011;60413;55.658;37.498;2022-09-13T04:04:37;15.18;;;7.45;;
72422;SDS011;60413;55.658;37.498;2022-09-13T04:07:04;10.18;;;4.97;;
72422;SDS011;60413;55.658;37.498;2022-09-13T04:09:31;11.13;;;6.72;;
72422;SDS011;60413;55.658;37.498;2022-09-13T04:11:57;10.98;;;5.63;;
72422;SDS011;60413;55.658;37.498;2022-09-13T04:14:23;16.42;;;6.95;;
72422;SDS011;60413;55.658;37.498;2022-09-13T04:16:51;8.93;;;5.03;;
72422;SDS011;60413;55.658;37.498;2022-09-13T04:19:18;11.00;;;5.13;;
72422;SDS011;60413;55.658;37.498;2022-09-13T04:21:46;10.55;;;6.40;;
72422;SDS011;60413;55.658;37.498;2022-09-13T04:24:23;10.23;;;6.10;;
72422;SDS011;60413;55.658;37.498;2022-09-13T04:26:51;13.55;;;6.75;;
72422;SDS011;60413;55.658;37.498;2022-09-13T04:29:20;14.18;;;5.78;;
72422;SDS011;60413;55.658;37.498;2022-09-13T04:31:47;13.10;;;6.18;;
72422;SDS011;60413;55.658;37.498;2022-09-13T04:34:14;13.30;;;6.57;;
72422;SDS011;60413;55.658;37.498;2022-09-13T04:36:43;10.07;;;5.82;;
72422;SDS011;60413;55.658;37.498;2022-09-13T04:39:12;12.43;;;6.55;;
72422;SDS011;60413;55.658;37.498;2022-09-13T04:41:40;15.70;;;7.65;;
72422;SDS011;60413;55.658;37.498;2022-09-13T04:44:07;17.33;;;7.28;;
72422;SDS011;60413;55.658;37.498;2022-09-13T04:46:34;14.52;;;7.50;;
72422;SDS011;60413;55.658;37.498;2022-09-13T04:49:00;13.38;;;5.90;;
72422;SDS011;60413;55.658;37.498;2022-09-13T04:51:26;13.73;;;6.80;;
72422;SDS011;60413;55.658;37.498;2022-09-13T04:53:53;11.45;;;5.85;;
72422;SDS011;60413;55.658;37.498;2022-09-13T04:56:25;14.65;;;6.55;;
72422;SDS011;60413;55.658;37.498;2022-09-13T04:58:51;14.70;;;6.75;;
72422;SDS011;60413;55.658;37.498;2022-09-13T05:01:19;16.02;;;7.28;;
72422;SDS011;60413;55.658;37.498;2022-09-13T05:03:46;11.48;;;5.25;;
72422;SDS011;60413;55.658;37.498;2022-09-13T05:06:15;13.88;;;7.30;;
72422;SDS011;60413;55.658;37.498;2022-09-13T05:08:52;15.10;;;6.53;;
72422;SDS011;60413;55.658;37.498;2022-09-13T05:11:24;15.23;;;5.63;;
72422;SDS011;60413;55.658;37.498;2022-09-13T05:13:55;14.57;;;6.55;;
72422;SDS011;60413;55.658;37.498;2022-09-13T05:16:30;11.98;;;6.47;;
72422;SDS011;60413;55.658;37.498;2022-09-13T05:19:02;14.75;;;7.88;;
72422;SDS011;60413;55.658;37.498;2022-09-13T05:21:29;12.73;;;6.13;;
72422;SDS011;60413;55.658;37.498;2022-09-13T05:23:55;14.80;;;6.50;;
72422;SDS011;60413;55.658;37.498;2022-09-13T05:26:23;12.05;;;5.35;;
72422;SDS011;60413;55.658;37.498;2022-09-13T05:28:53;17.52;;;7.93;;
72422;SDS011;60413;55.658;37.498;2022-09-13T05:31:20;14.80;;;7.45;;
72422;SDS011;60413;55.658;37.498;2022-09-13T05:33:47;17.13;;;6.70;;
72422;SDS011;60413;55.658;37.498;2022-09-13T05:36:25;13.13;;;7.30;;
72422;SDS011;60413;55.658;37.498;2022-09-13T05:38:53;12.23;;;5.65;;
72422;SDS011;60413;55.658;37.498;2022-09-13T05:41:44;14.20;;;7.72;;
72422;SDS011;60413;55.658;37.498;2022-09-13T05:44:21;13.15;;;6.70;;
72422;SDS011;60413;55.658;37.498;2022-09-13T05:46:52;16.40;;;7.35;;
72422;SDS011;60413;55.658;37.498;2022-09-13T05:49:23;11.80;;;6.60;;
72422;SDS011;60413;55.658;37.498;2022-09-13T05:51:52;18.45;;;7.95;;
72422;SDS011;60413;55.658;37.498;2022-09-13T05:57:16;20.60;;;6.95;;
72422;SDS011;60413;55.658;37.498;2022-09-13T06:00:35;22.00;;;7.10;;
72422;SDS011;60413;55.658;37.498;2022-09-13T06:03:17;8.75;;;4.28;;
72422;SDS011;60413;55.658;37.498;2022-09-13T06:09:28;14.30;;;7.32;;
72422;SDS011;60413;55.658;37.498;2022-09-13T06:12:11;15.65;;;7.35;;
72422;SDS011;60413;55.658;37.498;2022-09-13T06:14:37;13.75;;;8.10;;
72422;SDS011;60413;55.658;37.498;2022-09-13T06:17:06;16.40;;;6.80;;
72422;SDS011;60413;55.658;37.498;2022-09-13T06:19:57;14.05;;;6.78;;
72422;SDS011;60413;55.658;37.498;2022-09-13T06:22:26;16.85;;;6.65;;
72422;SDS011;60413;55.658;37.498;2022-09-13T06:25:00;16.48;;;6.32;;
72422;SDS011;60413;55.658;37.498;2022-09-13T06:27:34;11.70;;;5.90;;
72422;SDS011;60413;55.658;37.498;2022-09-13T06:30:00;16.33;;;6.45;;
72422;SDS011;60413;55.658;37.498;2022-09-13T06:32:29;11.25;;;5.70;;
72422;SDS011;60413;55.658;37.498;2022-09-13T06:34:55;13.85;;;6.30;;
72422;SDS011;60413;55.658;37.498;2022-09-13T06:37:21;14.73;;;5.85;;
72422;SDS011;60413;55.658;37.498;2022-09-13T06:39:47;20.20;;;7.20;;
72422;SDS011;60413;55.658;37.498;2022-09-13T06:42:18;16.27;;;6.88;;
72422;SDS011;60413;55.658;37.498;2022-09-13T06:44:44;13.20;;;6.80;;
72422;SDS011;60413;55.658;37.498;2022-09-13T06:47:12;14.20;;;5.88;;
72422;SDS011;60413;55.658;37.498;2022-09-13T06:49:39;15.07;;;6.60;;
72422;SDS011;60413;55.658;37.498;2022-09-13T06:52:05;8.80;;;4.80;;
72422;SDS011;60413;55.658;37.498;2022-09-13T06:54:31;15.02;;;6.32;;
72422;SDS011;60413;55.658;37.498;2022-09-13T06:56:59;13.65;;;5.35;;
72422;SDS011;60413;55.658;37.498;2022-09-13T06:59:27;20.95;;;6.65;;
72422;SDS011;60413;55.658;37.498;2022-09-13T07:01:53;13.35;;;5.75;;
72422;SDS011;60413;55.658;37.498;2022-09-13T07:04:18;9.75;;;5.88;;
72422;SDS011;60413;55.658;37.498;2022-09-13T07:06:45;14.75;;;7.18;;
72422;SDS011;60413;55.658;37.498;2022-09-13T07:09:17;19.92;;;6.18;;
72422;SDS011;60413;55.658;37.498;2022-09-13T07:11:46;10.75;;;4.80;;
72422;SDS011;60413;55.658;37.498;2022-09-13T07:14:14;10.63;;;4.55;;
72422;SDS011;60413;55.658;37.498;2022-09-13T07:16:41;19.67;;;6.20;;
72422;SDS011;60413;55.658;37.498;2022-09-13T07:22:34;18.73;;;6.43;;
72422;SDS011;60413;55.658;37.498;2022-09-13T07:25:00;8.43;;;4.57;;
72422;SDS011;60413;55.658;37.498;2022-09-13T07:27:26;13.32;;;5.50;;
72422;SDS011;60413;55.658;37.498;2022-09-13T07:29:52;13.15;;;5.72;;
72422;SDS011;60413;55.658;37.498;2022-09-13T07:32:18;20.50;;;6.97;;
72422;SDS011;60413;55.658;37.498;2022-09-13T07:34:47;6.65;;;3.40;;
72422;SDS011;60413;55.658;37.498;2022-09-13T07:37:46;13.80;;;6.00;;
72422;SDS011;60413;55.658;37.498;2022-09-13T07:40:21;11.00;;;4.80;;
72422;SDS011;60413;55.658;37.498;2022-09-13T07:42:50;9.55;;;3.97;;
72422;SDS011;60413;55.658;37.498;2022-09-13T07:45:19;11.32;;;5.88;;
72422;SDS011;60413;55.658;37.498;2022-09-13T07:47:46;8.65;;;4.75;;
72422;SDS011;60413;55.658;37.498;2022-09-13T07:50:18;13.52;;;5.40;;
72422;SDS011;60413;55.658;37.498;2022-09-13T07:52:47;18.83;;;7.07;;
72422;SDS011;60413;55.658;37.498;2022-09-13T07:55:13;21.42;;;4.07;;
72422;SDS011;60413;55.658;37.498;2022-09-13T07:57:45;14.50;;;5.20;;
72422;SDS011;60413;55.658;37.498;2022-09-13T08:00:19;12.38;;;4.82;;
72422;SDS011;60413;55.658;37.498;2022-09-13T08:02:46;11.75;;;4.30;;
72422;SDS011;60413;55.658;37.498;2022-09-13T08:05:31;9.48;;;4.28;;
72422;SDS011;60413;55.658;37.498;2022-09-13T08:08:07;10.25;;;4.30;;
72422;SDS011;60413;55.658;37.498;2022-09-13T08:10:54;10.55;;;5.13;;
72422;SDS011;60413;55.658;37.498;2022-09-13T08:14:02;7.13;;;3.75;;
72422;SDS011;60413;55.658;37.498;2022-09-13T08:16:53;11.35;;;5.40;;
72422;SDS011;60413;55.658;37.498;2022-09-13T08:19:49;9.68;;;4.55;;
72422;SDS011;60413;55.658;37.498;2022-09-13T08:22:15;7.15;;;2.83;;
72422;SDS011;60413;55.658;37.498;2022-09-13T08:24:52;8.68;;;3.67;;
72422;SDS011;60413;55.658;37.498;2022-09-13T08:27:31;11.48;;;5.18;;
72422;SDS011;60413;55.658;37.498;2022-09-13T08:29:57;6.38;;;3.33;;
72422;SDS011;60413;55.658;37.498;2022-09-13T08:32:24;11.30;;;5.15;;
72422;SDS011;60413;55.658;37.498;2022-09-13T08:34:58;8.63;;;3.97;;
72422;SDS011;60413;55.658;37.498;2022-09-13T08:37:24;14.35;;;3.85;;
72422;SDS011;60413;55.658;37.498;2022-09-13T08:39:50;16.20;;;4.95;;
72422;SDS011;60413;55.658;37.498;2022-09-13T08:42:28;10.07;;;4.72;;
72422;SDS011;60413;55.658;37.498;2022-09-13T08:45:40;5.78;;;2.92;;
72422;SDS011;60413;55.658;37.498;2022-09-13T08:48:12;7.30;;;3.25;;
72422;SDS011;60413;55.658;37.498;2022-09-13T08:50:51;8.27;;;4.15;;
72422;SDS011;60413;55.658;37.498;2022-09-13T08:53:46;7.85;;;4.22;;
72422;SDS011;60413;55.658;37.498;2022-09-13T09:06:11;7.10;;;3.53;;
72422;SDS011;60413;55.658;37.498;2022-09-13T09:08:53;7.32;;;2.88;;
72422;SDS011;60413;55.658;37.498;2022-09-13T09:11:30;5.63;;;3.42;;
72422;SDS011;60413;55.658;37.498;2022-09-13T09:14:30;5.25;;;2.65;;
72422;SDS011;60413;55.658;37.498;2022-09-13T09:17:43;6.43;;;2.33;;
72422;SDS011;60413;55.658;37.498;2022-09-13T09:20:27;8.50;;;2.80;;
72422;SDS011;60413;55.658;37.498;2022-09-13T09:22:59;10.23;;;3.17;;
72422;SDS011;60413;55.658;37.498;2022-09-13T09:25:30;6.03;;;2.88;;
72422;SDS011;60413;55.658;37.498;2022-09-13T09:28:16;6.15;;;2.75;;
72422;SDS011;60413;55.658;37.498;2022-09-13T09:33:50;10.00;;;2.90;;
72422;SDS011;60413;55.658;37.498;2022-09-13T09:36:40;4.85;;;2.47;;
72422;SDS011;60413;55.658;37.498;2022-09-13T09:39:13;3.70;;;1.73;;
72422;SDS011;60413;55.658;37.498;2022-09-13T09:41:44;4.28;;;2.15;;
72422;SDS011;60413;55.658;37.498;2022-09-13T09:46:59;4.47;;;1.75;;
72422;SDS011;60413;55.658;37.498;2022-09-13T09:50:12;4.13;;;2.13;;
72422;SDS011;60413;55.658;37.498;2022-09-13T09:55:29;5.32;;;2.40;;
72422;SDS011;60413;55.658;37.498;2022-09-13T09:58:10;4.05;;;1.70;;
72422;SDS011;60413;55.658;37.498;2022-09-13T10:00:57;5.97;;;2.35;;
72422;SDS011;60413;55.658;37.498;2022-09-13T10:03:30;4.63;;;1.90;;
72422;SDS011;60413;55.658;37.498;2022-09-13T10:06:05;3.63;;;2.25;;
72422;SDS011;60413;55.658;37.498;2022-09-13T10:08:40;7.18;;;1.77;;
72422;SDS011;60413;55.658;37.498;2022-09-13T10:11:11;5.90;;;2.38;;
72422;SDS011;60413;55.658;37.498;2022-09-13T10:14:01;4.50;;;1.30;;
72422;SDS011;60413;55.658;37.498;2022-09-13T10:16:34;3.63;;;1.30;;
72422;SDS011;60413;55.658;37.498;2022-09-13T10:19:39;5.38;;;1.52;;
72422;SDS011;60413;55.658;37.498;2022-09-13T10:25:21;5.05;;;1.92;;
72422;SDS011;60413;55.658;37.498;2022-09-13T10:28:04;2.55;;;1.55;;
72422;SDS011;60413;55.658;37.498;2022-09-13T10:30:48;3.05;;;1.10;;
72422;SDS011;60413;55.658;37.498;2022-09-13T10:36:23;2.13;;;0.88;;
72422;SDS011;60413;55.658;37.498;2022-09-13T10:42:08;3.50;;;1.40;;
72422;SDS011;60413;55.658;37.498;2022-09-13T10:44:54;1.75;;;0.98;;
72422;SDS011;60413;55.658;37.498;2022-09-13T10:47:24;3.63;;;1.10;;
72422;SDS011;60413;55.658;37.498;2022-09-13T10:50:09;4.40;;;1.52;;
72422;SDS011;60413;55.658;37.498;2022-09-13T10:52:52;12.18;;;2.63;;
72422;SDS011;60413;55.658;37.498;2022-09-13T10:55:25;1.98;;;1.00;;
72422;SDS011;60413;55.658;37.498;2022-09-13T11:00:37;3.95;;;1.20;;
72422;SDS011;60413;55.658;37.498;2022-09-13T11:14:15;3.13;;;1.30;;
72422;SDS011;60413;55.658;37.498;2022-09-13T11:20:09;4.57;;;1.15;;
72422;SDS011;60413;55.658;37.498;2022-09-13T11:23:28;2.15;;;1.15;;
72422;SDS011;60413;55.658;37.498;2022-09-13T11:29:22;6.30;;;1.23;;
72422;SDS011;60413;55.658;37.498;2022-09-13T11:32:16;3.83;;;1.50;;
72422;SDS011;60413;55.658;37.498;2022-09-13T11:43:53;3.42;;;1.38;;
72422;SDS011;60413;55.658;37.498;2022-09-13T11:50:28;2.40;;;1.33;;
72422;SDS011;60413;55.658;37.498;2022-09-13T11:56:28;9.93;;;1.40;;
72422;SDS011;60413;55.658;37.498;2022-09-13T12:05:23;4.60;;;0.93;;
72422;SDS011;60413;55.658;37.498;2022-09-13T12:08:25;1.85;;;0.95;;
72422;SDS011;60413;55.658;37.498;2022-09-13T12:11:30;7.07;;;1.40;;
72422;SDS011;60413;55.658;37.498;2022-09-13T12:14:20;2.10;;;0.98;;
72422;SDS011;60413;55.658;37.498;2022-09-13T12:22:45;2.75;;;1.23;;
72422;SDS011;60413;55.658;37.498;2022-09-13T12:25:20;2.78;;;1.50;;
72422;SDS011;60413;55.658;37.498;2022-09-13T12:28:53;9.18;;;1.52;;
72422;SDS011;60413;55.658;37.498;2022-09-13T12:31:58;2.33;;;1.10;;
72422;SDS011;60413;55.658;37.498;2022-09-13T12:51:51;2.00;;;1.02;;
72422;SDS011;60413;55.658;37.498;2022-09-13T12:55:15;6.05;;;1.90;;
72422;SDS011;60413;55.658;37.498;2022-09-13T13:01:20;4.05;;;1.10;;
72422;SDS011;60413;55.658;37.498;2022-09-13T13:07:30;5.90;;;1.52;;
72422;SDS011;60413;55.658;37.498;2022-09-13T13:18:22;3.95;;;1.40;;
72422;SDS011;60413;55.658;37.498;2022-09-13T13:25:37;3.17;;;1.13;;
72422;SDS011;60413;55.658;37.498;2022-09-13T13:32:32;2.63;;;1.55;;
72422;SDS011;60413;55.658;37.498;2022-09-13T13:35:50;6.50;;;1.10;;
72422;SDS011;60413;55.658;37.498;2022-09-13T13:53:54;4.30;;;1.52;;
72422;SDS011;60413;55.658;37.498;2022-09-13T14:28:54;1.95;;;1.13;;
72422;SDS011;60413;55.658;37.498;2022-09-13T14:44:43;4.07;;;1.42;;
72422;SDS011;60413;55.658;37.498;2022-09-13T15:37:12;5.18;;;1.30;;
72422;SDS011;60413;55.658;37.498;2022-09-13T17:05:07;7.50;;;2.15;;
72422;SDS011;60413;55.658;37.498;2022-09-13T17:09:06;4.07;;;2.58;;
72422;SDS011;60413;55.658;37.498;2022-09-13T17:31:45;9.95;;;2.58;;
72422;SDS011;60413;55.658;37.498;2022-09-13T19:00:26;7.22;;;4.50;;
72422;SDS011;60413;55.658;37.498;2022-09-13T19:55:22;6.38;;;3.30;;
72422;SDS011;60413;55.658;37.498;2022-09-13T20:14:58;6.03;;;3.72;;
72422;SDS011;60413;55.658;37.498;2022-09-13T20:31:26;12.27;;;4.95;;
72422;SDS011;60413;55.658;37.498;2022-09-13T20:39:10;9.68;;;5.57;;
72422;SDS011;60413;55.658;37.498;2022-09-13T20:46:33;14.63;;;6.75;;
72422;SDS011;60413;55.658;37.498;2022-09-13T20:49:30;10.57;;;6.30;;
72422;SDS011;60413;55.658;37.498;2022-09-13T20:52:35;8.20;;;4.57;;
72422;SDS011;60413;55.658;37.498;2022-09-13T20:56:12;7.55;;;5.40;;
72422;SDS011;60413;55.658;37.498;2022-09-13T21:07:36;14.13;;;6.53;;
72422;SDS011;60413;55.658;37.498;2022-09-13T21:10:41;9.15;;;5.57;;
72422;SDS011;60413;55.658;37.498;2022-09-13T21:19:53;10.88;;;6.57;;
72422;SDS011;60413;55.658;37.498;2022-09-13T21:23:12;12.30;;;8.38;;
72422;SDS011;60413;55.658;37.498;2022-09-13T21:29:28;7.63;;;4.80;;
72422;SDS011;60413;55.658;37.498;2022-09-13T21:32:00;16.13;;;8.15;;
72422;SDS011;60413;55.658;37.498;2022-09-13T21:35:01;8.05;;;5.20;;
72422;SDS011;60413;55.658;37.498;2022-09-13T21:37:31;10.65;;;6.70;;
72422;SDS011;60413;55.658;37.498;2022-09-13T21:40:06;13.93;;;7.68;;
72422;SDS011;60413;55.658;37.498;2022-09-13T21:42:33;11.43;;;7.40;;
72422;SDS011;60413;55.658;37.498;2022-09-13T21:45:39;12.65;;;7.18;;
72422;SDS011;60413;55.658;37.498;2022-09-13T21:48:20;10.55;;;7.40;;
72422;SDS011;60413;55.658;37.498;2022-09-13T21:50:49;12.18;;;7.13;;
72422;SDS011;60413;55.658;37.498;2022-09-13T21:53:39;13.93;;;7.03;;
72422;SDS011;60413;55.658;37.498;2022-09-13T21:56:56;12.63;;;8.60;;
72422;SDS011;60413;55.658;37.498;2022-09-13T22:00:38;14.35;;;6.38;;
72422;SDS011;60413;55.658;37.498;2022-09-13T22:38:00;12.70;;;7.82;;
72422;SDS011;60413;55.658;37.498;2022-09-13T22:44:38;11.65;;;7.30;;
72422;SDS011;60413;55.658;37.498;2022-09-13T22:48:02;13.73;;;8.07;;
72422;SDS011;60413;55.658;37.498;2022-09-13T22:51:33;13.43;;;8.27;;
72422;SDS011;60413;55.658;37.498;2022-09-13T22:54:57;18.58;;;10.00;;
72422;SDS011;60413;55.658;37.498;2022-09-13T22:57:29;19.02;;;10.07;;
72422;SDS011;60413;55.658;37.498;2022-09-13T23:08:19;11.32;;;7.07;;
72422;SDS011;60413;55.658;37.498;2022-09-13T23:11:41;20.27;;;10.63;;
72422;SDS011;60413;55.658;37.498;2022-09-13T23:15:17;11.98;;;7.35;;
72422;SDS011;60413;55.658;37.498;2022-09-13T23:26:01;5.38;;;3.75;;
72422;SDS011;60413;55.658;37.498;2022-09-13T23:29:37;14.57;;;10.15;;
72422;SDS011;60413;55.658;37.498;2022-09-13T23:32:18;9.20;;;6.68;;
72422;SDS011;60413;55.658;37.498;2022-09-13T23:39:09;7.72;;;5.10;;
72422;SDS011;60413;55.658;37.498;2022-09-13T23:41:58;11.50;;;7.35;;
72422;SDS011;60413;55.658;37.498;2022-09-13T23:44:40;8.43;;;5.43;;
72422;SDS011;60413;55.658;37.498;2022-09-13T23:47:16;7.22;;;5.32;;
72422;SDS011;60413;55.658;37.498;2022-09-13T23:50:08;9.38;;;7.00;;
72422;SDS011;60413;55.658;37.498;2022-09-13T23:52:37;10.38;;;5.93;;
72422;SDS011;60413;55.658;37.498;2022-09-13T23:55:28;11.38;;;8.32;;
72422;SDS011;60413;55.658;37.498;2022-09-13T23:58:04;10.82;;;6.90;;
